createdAt,value
2017-06-14T00:00:08.062Z,938.72
2017-06-14T00:00:36.219Z,938.73
2017-06-14T00:01:04.388Z,938.72
2017-06-14T00:01:32.479Z,938.74
2017-06-14T00:02:00.535Z,938.72
2017-06-14T00:02:28.694Z,938.69
2017-06-14T00:02:56.765Z,938.73
2017-06-14T00:03:24.921Z,938.73
2017-06-14T00:03:53.069Z,938.66
2017-06-14T00:04:21.038Z,938.7
2017-06-14T00:04:49.130Z,938.68
2017-06-14T00:05:17.183Z,938.67
2017-06-14T00:05:45.231Z,938.69
2017-06-14T00:06:13.393Z,938.67
2017-06-14T00:06:41.558Z,938.66
2017-06-14T00:07:09.617Z,938.69
2017-06-14T00:07:37.670Z,938.66
2017-06-14T00:08:05.796Z,938.63
2017-06-14T00:08:33.932Z,938.68
2017-06-14T00:09:01.896Z,938.7
2017-06-14T00:09:30.039Z,938.73
2017-06-14T00:09:58.188Z,938.74
2017-06-14T00:10:26.368Z,938.77
2017-06-14T00:10:54.514Z,938.79
2017-06-14T00:11:22.596Z,938.79
2017-06-14T00:11:50.731Z,938.84
2017-06-14T00:12:18.830Z,938.81
2017-06-14T00:12:46.997Z,938.8
2017-06-14T00:13:15.158Z,938.81
2017-06-14T00:13:43.292Z,938.85
2017-06-14T00:14:11.439Z,938.83
2017-06-14T00:14:39.538Z,938.85
2017-06-14T00:15:07.703Z,938.89
2017-06-14T00:15:35.846Z,938.89
2017-06-14T00:16:03.992Z,938.93
2017-06-14T00:16:32.140Z,938.91
2017-06-14T00:17:00.272Z,938.89
2017-06-14T00:17:28.415Z,938.94
2017-06-14T00:17:56.556Z,938.94
2017-06-14T00:18:24.681Z,938.96
2017-06-14T00:18:52.792Z,938.98
2017-06-14T00:19:20.929Z,938.97
2017-06-14T00:19:48.965Z,938.98
2017-06-14T00:20:17.082Z,939.01
2017-06-14T00:20:45.195Z,939.04
2017-06-14T00:21:13.368Z,939.02
2017-06-14T00:21:41.471Z,939.03
2017-06-14T00:22:09.432Z,939.08
2017-06-14T00:22:37.491Z,939.04
2017-06-14T00:23:05.685Z,939.08
2017-06-14T00:23:33.821Z,939.11
2017-06-14T00:24:01.990Z,939.13
2017-06-14T00:24:29.930Z,939.18
2017-06-14T00:24:58.087Z,939.16
2017-06-14T00:25:26.182Z,939.2
2017-06-14T00:25:54.292Z,939.23
2017-06-14T00:26:22.435Z,939.2
2017-06-14T00:26:50.567Z,939.19
2017-06-14T00:27:18.739Z,939.24
2017-06-14T00:27:46.658Z,939.23
2017-06-14T00:28:14.699Z,939.27
2017-06-14T00:28:42.746Z,939.31
2017-06-14T00:29:10.877Z,939.3
2017-06-14T00:29:38.940Z,939.27
2017-06-14T00:30:07.098Z,939.28
2017-06-14T00:30:35.241Z,939.27
2017-06-14T00:31:03.355Z,939.23
2017-06-14T00:31:31.495Z,939.22
2017-06-14T00:31:59.568Z,939.24
2017-06-14T00:32:27.714Z,939.19
2017-06-14T00:32:55.873Z,939.2
2017-06-14T00:33:23.940Z,939.2
2017-06-14T00:33:52.116Z,939.2
2017-06-14T00:34:20.173Z,939.2
2017-06-14T00:34:48.255Z,939.19
2017-06-14T00:35:16.421Z,939.21
2017-06-14T00:35:44.579Z,939.23
2017-06-14T00:36:12.625Z,939.23
2017-06-14T00:36:40.599Z,939.18
2017-06-14T00:37:08.733Z,939.19
2017-06-14T00:37:36.932Z,939.19
2017-06-14T00:38:05.104Z,939.22
2017-06-14T00:38:33.114Z,939.17
2017-06-14T00:39:01.165Z,939.18
2017-06-14T00:39:29.117Z,939.17
2017-06-14T00:39:57.172Z,939.16
2017-06-14T00:40:25.340Z,939.17
2017-06-14T00:40:53.478Z,939.12
2017-06-14T00:41:21.572Z,939.11
2017-06-14T00:41:49.635Z,939.16
2017-06-14T00:42:17.823Z,939.08
2017-06-14T00:42:45.797Z,939.09
2017-06-14T00:43:13.861Z,939.07
2017-06-14T00:43:41.920Z,939.06
2017-06-14T00:44:09.997Z,939.05
2017-06-14T00:44:38.135Z,939
2017-06-14T00:45:06.167Z,939.01
2017-06-14T00:45:34.225Z,939.02
2017-06-14T00:46:02.392Z,938.95
2017-06-14T00:46:30.527Z,939
2017-06-14T00:46:58.464Z,938.98
2017-06-14T00:47:26.617Z,938.97
2017-06-14T00:47:54.805Z,938.97
2017-06-14T00:48:22.831Z,938.97
2017-06-14T00:48:50.983Z,938.97
2017-06-14T00:49:19.034Z,938.94
2017-06-14T00:49:47.140Z,938.95
2017-06-14T00:50:15.201Z,938.97
2017-06-14T00:50:43.377Z,938.96
2017-06-14T00:51:11.347Z,938.97
2017-06-14T00:51:39.319Z,938.97
2017-06-14T00:52:07.459Z,938.99
2017-06-14T00:52:35.994Z,938.97
2017-06-14T00:53:04.149Z,939
2017-06-14T00:53:32.206Z,939.04
2017-06-14T00:54:00.267Z,939.05
2017-06-14T00:54:28.241Z,939.03
2017-06-14T00:54:56.389Z,939.02
2017-06-14T00:55:24.453Z,939.04
2017-06-14T00:55:52.620Z,939.02
2017-06-14T00:56:20.759Z,939.05
2017-06-14T00:56:48.780Z,938.99
2017-06-14T00:57:16.941Z,939.02
2017-06-14T00:57:45.090Z,939.01
2017-06-14T00:58:13.276Z,938.98
2017-06-14T00:58:41.437Z,939.03
2017-06-14T00:59:09.485Z,939.01
2017-06-14T00:59:37.643Z,939
2017-06-14T01:00:05.617Z,938.97
2017-06-14T01:00:33.738Z,939.02
2017-06-14T01:01:01.877Z,938.97
2017-06-14T01:01:29.938Z,939.02
2017-06-14T01:01:58.091Z,938.95
2017-06-14T01:02:26.234Z,939.02
2017-06-14T01:02:54.309Z,939.01
2017-06-14T01:03:22.459Z,939
2017-06-14T01:03:50.619Z,939.02
2017-06-14T01:04:18.765Z,939.01
2017-06-14T01:04:46.893Z,938.96
2017-06-14T01:05:15.023Z,938.98
2017-06-14T01:05:43.204Z,938.97
2017-06-14T01:06:11.189Z,938.97
2017-06-14T01:06:39.350Z,938.98
2017-06-14T01:07:07.399Z,938.95
2017-06-14T01:07:35.457Z,938.92
2017-06-14T01:08:03.501Z,938.89
2017-06-14T01:08:31.566Z,938.87
2017-06-14T01:08:59.709Z,938.89
2017-06-14T01:09:27.736Z,938.87
2017-06-14T01:09:55.871Z,938.86
2017-06-14T01:10:23.900Z,938.86
2017-06-14T01:10:52.061Z,938.84
2017-06-14T01:11:20.119Z,938.85
2017-06-14T01:11:48.273Z,938.88
2017-06-14T01:12:16.407Z,938.89
2017-06-14T01:12:44.539Z,938.89
2017-06-14T01:13:12.700Z,938.88
2017-06-14T01:13:40.763Z,938.86
2017-06-14T01:14:08.821Z,938.86
2017-06-14T01:14:36.863Z,938.87
2017-06-14T01:15:05.026Z,938.85
2017-06-14T01:15:33.093Z,938.85
2017-06-14T01:16:01.179Z,938.79
2017-06-14T01:16:29.229Z,938.78
2017-06-14T01:16:57.172Z,938.73
2017-06-14T01:17:25.220Z,938.72
2017-06-14T01:17:53.283Z,938.67
2017-06-14T01:18:21.443Z,938.71
2017-06-14T01:18:49.608Z,938.64
2017-06-14T01:19:17.734Z,938.68
2017-06-14T01:19:45.798Z,938.6
2017-06-14T01:20:13.849Z,938.56
2017-06-14T01:20:41.981Z,938.58
2017-06-14T01:21:10.019Z,938.55
2017-06-14T01:21:38.113Z,938.5
2017-06-14T01:22:06.257Z,938.48
2017-06-14T01:22:34.434Z,938.48
2017-06-14T01:23:02.570Z,938.45
2017-06-14T01:23:30.738Z,938.41
2017-06-14T01:23:58.861Z,938.38
2017-06-14T01:24:27.013Z,938.42
2017-06-14T01:24:55.161Z,938.41
2017-06-14T01:25:23.329Z,938.39
2017-06-14T01:25:51.450Z,938.4
2017-06-14T01:26:19.575Z,938.42
2017-06-14T01:26:47.622Z,938.38
2017-06-14T01:27:15.758Z,938.37
2017-06-14T01:27:43.767Z,938.33
2017-06-14T01:28:11.799Z,938.31
2017-06-14T01:28:39.958Z,938.2
2017-06-14T01:29:08.027Z,938.09
2017-06-14T01:29:36.059Z,937.99
2017-06-14T01:30:04.128Z,937.91
2017-06-14T01:30:32.198Z,937.78
2017-06-14T01:31:00.361Z,937.7
2017-06-14T01:31:28.616Z,937.63
2017-06-14T01:31:56.680Z,937.58
2017-06-14T01:32:24.840Z,937.49
2017-06-14T01:32:52.881Z,937.51
2017-06-14T01:33:20.941Z,937.46
2017-06-14T01:33:49.090Z,937.48
2017-06-14T01:34:17.262Z,937.43
2017-06-14T01:34:45.384Z,937.46
2017-06-14T01:35:13.444Z,937.48
2017-06-14T01:35:41.613Z,937.43
2017-06-14T01:36:09.748Z,937.43
2017-06-14T01:36:37.911Z,937.39
2017-06-14T01:37:06.063Z,937.43
2017-06-14T01:37:34.119Z,937.41
2017-06-14T01:38:02.257Z,937.41
2017-06-14T01:38:30.415Z,937.43
2017-06-14T01:38:58.473Z,937.4
2017-06-14T01:39:26.626Z,937.33
2017-06-14T01:39:54.600Z,937.35
2017-06-14T01:40:22.720Z,937.35
2017-06-14T01:40:50.747Z,937.31
2017-06-14T01:41:18.799Z,937.31
2017-06-14T01:41:46.934Z,937.29
2017-06-14T01:42:14.873Z,937.26
2017-06-14T01:42:42.929Z,937.23
2017-06-14T01:43:11.073Z,937.2
2017-06-14T01:43:39.225Z,937.21
2017-06-14T01:44:07.366Z,937.17
2017-06-14T01:44:35.403Z,937.16
2017-06-14T01:45:03.535Z,937.19
2017-06-14T01:45:31.722Z,937.17
2017-06-14T01:45:59.878Z,937.11
2017-06-14T01:46:28.042Z,937.15
2017-06-14T01:46:56.114Z,937.15
2017-06-14T01:47:24.251Z,937.2
2017-06-14T01:47:52.300Z,937.16
2017-06-14T01:48:20.350Z,937.22
2017-06-14T01:48:48.510Z,937.19
2017-06-14T01:49:16.618Z,937.22
2017-06-14T01:49:44.749Z,937.26
2017-06-14T01:50:12.764Z,937.29
2017-06-14T01:50:40.827Z,937.27
2017-06-14T01:51:08.986Z,937.3
2017-06-14T01:51:37.134Z,937.24
2017-06-14T01:52:05.214Z,937.27
2017-06-14T01:52:33.263Z,937.29
2017-06-14T01:53:01.420Z,937.25
2017-06-14T01:53:29.488Z,937.27
2017-06-14T01:53:57.617Z,937.3
2017-06-14T01:54:25.567Z,937.3
2017-06-14T01:54:53.616Z,937.28
2017-06-14T01:55:21.576Z,937.31
2017-06-14T01:55:49.689Z,937.37
2017-06-14T01:56:17.848Z,937.37
2017-06-14T01:56:45.799Z,937.45
2017-06-14T01:57:13.962Z,937.49
2017-06-14T01:57:42.034Z,937.52
2017-06-14T01:58:10.201Z,937.59
2017-06-14T01:58:38.264Z,937.64
2017-06-14T01:59:06.403Z,937.69
2017-06-14T01:59:34.546Z,937.74
2017-06-14T02:00:02.697Z,937.76
2017-06-14T02:00:30.845Z,937.8
2017-06-14T02:00:58.980Z,937.84
2017-06-14T02:01:27.041Z,937.85
2017-06-14T02:01:55.082Z,937.89
2017-06-14T02:02:23.248Z,937.92
2017-06-14T02:02:51.459Z,937.88
2017-06-14T02:03:19.583Z,937.9
2017-06-14T02:03:47.706Z,937.88
2017-06-14T02:04:15.731Z,937.89
2017-06-14T02:04:43.863Z,937.93
2017-06-14T02:05:12.020Z,937.92
2017-06-14T02:05:40.092Z,937.98
2017-06-14T02:06:08.050Z,937.97
2017-06-14T02:06:36.100Z,937.98
2017-06-14T02:07:04.175Z,938
2017-06-14T02:07:32.194Z,938.07
2017-06-14T02:08:00.146Z,938.12
2017-06-14T02:08:28.226Z,938.14
2017-06-14T02:08:56.357Z,938.16
2017-06-14T02:09:24.465Z,938.15
2017-06-14T02:09:52.596Z,938.15
2017-06-14T02:10:20.687Z,938.17
2017-06-14T02:10:48.833Z,938.15
2017-06-14T02:11:16.987Z,938.16
2017-06-14T02:11:45.097Z,938.15
2017-06-14T02:12:13.256Z,938.13
2017-06-14T02:12:41.429Z,938.11
2017-06-14T02:13:09.500Z,938.13
2017-06-14T02:13:37.653Z,938.17
2017-06-14T02:14:05.891Z,938.18
2017-06-14T02:14:34.044Z,938.2
2017-06-14T02:15:02.002Z,938.23
2017-06-14T02:15:30.156Z,938.26
2017-06-14T02:15:58.297Z,938.26
2017-06-14T02:16:26.345Z,938.28
2017-06-14T02:16:54.494Z,938.36
2017-06-14T02:17:22.625Z,938.37
2017-06-14T02:17:50.740Z,938.44
2017-06-14T02:18:18.902Z,938.45
2017-06-14T02:18:47.075Z,938.51
2017-06-14T02:19:15.218Z,938.54
2017-06-14T02:19:43.360Z,938.56
2017-06-14T02:20:11.405Z,938.6
2017-06-14T02:20:39.539Z,938.65
2017-06-14T02:21:07.714Z,938.67
2017-06-14T02:21:35.747Z,938.68
2017-06-14T02:22:03.810Z,938.69
2017-06-14T02:22:31.865Z,938.66
2017-06-14T02:22:59.916Z,938.71
2017-06-14T02:23:28.045Z,938.67
2017-06-14T02:23:56.199Z,938.68
2017-06-14T02:24:24.352Z,938.68
2017-06-14T02:24:52.474Z,938.7
2017-06-14T02:25:20.655Z,938.65
2017-06-14T02:25:48.791Z,938.63
2017-06-14T02:26:16.951Z,938.66
2017-06-14T02:26:44.915Z,938.67
2017-06-14T02:27:12.975Z,938.64
2017-06-14T02:27:41.015Z,938.64
2017-06-14T02:28:09.163Z,938.67
2017-06-14T02:28:37.316Z,938.67
2017-06-14T02:29:05.459Z,938.67
2017-06-14T02:29:33.581Z,938.68
2017-06-14T02:30:01.737Z,938.69
2017-06-14T02:30:29.875Z,938.66
2017-06-14T02:30:58.031Z,938.61
2017-06-14T02:31:26.204Z,938.65
2017-06-14T02:31:54.343Z,938.59
2017-06-14T02:32:22.520Z,938.56
2017-06-14T02:32:51.922Z,938.58
2017-06-14T02:33:20.045Z,938.52
2017-06-14T02:33:48.220Z,938.5
2017-06-14T02:34:16.195Z,938.5
2017-06-14T02:34:44.319Z,938.47
2017-06-14T02:35:12.431Z,938.47
2017-06-14T02:35:40.546Z,938.46
2017-06-14T02:36:08.735Z,938.43
2017-06-14T02:36:36.784Z,938.39
2017-06-14T02:37:04.927Z,938.36
2017-06-14T02:37:32.968Z,938.37
2017-06-14T02:38:01.107Z,938.2
2017-06-14T02:38:29.259Z,938.14
2017-06-14T02:38:57.392Z,938.13
2017-06-14T02:39:25.516Z,938.11
2017-06-14T02:39:53.782Z,938.06
2017-06-14T02:40:21.735Z,937.99
2017-06-14T02:40:49.885Z,937.92
2017-06-14T02:41:18.019Z,937.85
2017-06-14T02:41:46.150Z,937.79
2017-06-14T02:42:14.191Z,937.72
2017-06-14T02:42:42.319Z,937.73
2017-06-14T02:43:10.359Z,937.68
2017-06-14T02:43:38.518Z,937.72
2017-06-14T02:44:06.567Z,937.71
2017-06-14T02:44:34.659Z,937.67
2017-06-14T02:45:02.720Z,937.71
2017-06-14T02:45:30.670Z,937.74
2017-06-14T02:45:58.733Z,937.73
2017-06-14T02:46:26.858Z,937.78
2017-06-14T02:46:54.912Z,937.84
2017-06-14T02:47:22.981Z,937.86
2017-06-14T02:47:51.113Z,937.86
2017-06-14T02:48:19.177Z,937.9
2017-06-14T02:48:47.313Z,937.94
2017-06-14T02:49:15.466Z,937.93
2017-06-14T02:49:43.624Z,937.98
2017-06-14T02:50:11.702Z,938.11
2017-06-14T02:50:39.738Z,938.1
2017-06-14T02:51:07.880Z,938.14
2017-06-14T02:51:36.059Z,938.21
2017-06-14T02:52:04.216Z,938.28
2017-06-14T02:52:32.348Z,938.33
2017-06-14T02:53:00.486Z,938.41
2017-06-14T02:53:28.618Z,938.45
2017-06-14T02:53:56.780Z,938.52
2017-06-14T02:54:24.840Z,938.56
2017-06-14T02:54:52.892Z,938.67
2017-06-14T02:55:20.850Z,938.66
2017-06-14T02:55:49.019Z,938.7
2017-06-14T02:56:17.168Z,938.71
2017-06-14T02:56:45.333Z,938.75
2017-06-14T02:57:13.457Z,938.76
2017-06-14T02:57:41.617Z,938.78
2017-06-14T02:58:09.577Z,938.8
2017-06-14T02:58:37.694Z,938.76
2017-06-14T02:59:05.733Z,938.74
2017-06-14T02:59:33.785Z,938.7
2017-06-14T03:00:01.921Z,938.71
2017-06-14T03:00:30.061Z,938.65
2017-06-14T03:00:58.128Z,938.62
2017-06-14T03:01:26.177Z,938.6
2017-06-14T03:01:54.350Z,938.57
2017-06-14T03:02:22.519Z,938.53
2017-06-14T03:02:50.639Z,938.53
2017-06-14T03:03:18.801Z,938.48
2017-06-14T03:03:46.947Z,938.46
2017-06-14T03:04:15.120Z,938.47
2017-06-14T03:04:43.303Z,938.42
2017-06-14T03:05:11.352Z,938.42
2017-06-14T03:05:39.490Z,938.38
2017-06-14T03:06:07.563Z,938.36
2017-06-14T03:06:35.719Z,938.35
2017-06-14T03:07:03.768Z,938.29
2017-06-14T03:07:31.828Z,938.28
2017-06-14T03:07:59.894Z,938.26
2017-06-14T03:08:28.018Z,938.24
2017-06-14T03:08:56.157Z,938.2
2017-06-14T03:09:24.274Z,938.25
2017-06-14T03:09:52.430Z,938.22
2017-06-14T03:10:20.498Z,938.24
2017-06-14T03:10:48.561Z,938.24
2017-06-14T03:11:16.700Z,938.24
2017-06-14T03:11:44.851Z,938.25
2017-06-14T03:12:12.928Z,938.26
2017-06-14T03:12:41.076Z,938.25
2017-06-14T03:13:09.200Z,938.29
2017-06-14T03:13:37.351Z,938.26
2017-06-14T03:14:05.403Z,938.27
2017-06-14T03:14:33.349Z,938.23
2017-06-14T03:15:01.502Z,938.23
2017-06-14T03:15:29.562Z,938.2
2017-06-14T03:15:57.587Z,938.18
2017-06-14T03:16:25.617Z,938.14
2017-06-14T03:16:53.735Z,938.15
2017-06-14T03:17:21.785Z,938.08
2017-06-14T03:17:49.925Z,938.09
2017-06-14T03:18:17.953Z,938.03
2017-06-14T03:18:46.109Z,937.96
2017-06-14T03:19:14.256Z,937.96
2017-06-14T03:19:42.323Z,937.9
2017-06-14T03:20:10.458Z,937.83
2017-06-14T03:20:38.626Z,937.69
2017-06-14T03:21:06.562Z,937.65
2017-06-14T03:21:34.591Z,937.56
2017-06-14T03:22:02.558Z,937.49
2017-06-14T03:22:30.684Z,937.44
2017-06-14T03:22:58.705Z,937.42
2017-06-14T03:23:26.841Z,937.33
2017-06-14T03:23:54.892Z,937.3
2017-06-14T03:24:23.039Z,937.28
2017-06-14T03:24:51.195Z,937.26
2017-06-14T03:25:19.345Z,937.27
2017-06-14T03:25:47.448Z,937.31
2017-06-14T03:26:15.494Z,937.35
2017-06-14T03:26:43.629Z,937.44
2017-06-14T03:27:11.686Z,937.51
2017-06-14T03:27:39.819Z,937.56
2017-06-14T03:28:07.877Z,937.58
2017-06-14T03:28:36.021Z,937.63
2017-06-14T03:29:04.078Z,937.71
2017-06-14T03:29:32.247Z,937.76
2017-06-14T03:30:00.392Z,937.75
2017-06-14T03:30:28.464Z,937.79
2017-06-14T03:30:56.609Z,937.81
2017-06-14T03:31:24.771Z,937.86
2017-06-14T03:31:52.767Z,937.85
2017-06-14T03:32:20.943Z,937.83
2017-06-14T03:32:49.057Z,937.83
2017-06-14T03:33:17.196Z,937.81
2017-06-14T03:33:45.355Z,937.78
2017-06-14T03:34:13.495Z,937.76
2017-06-14T03:34:41.663Z,937.8
2017-06-14T03:35:09.686Z,937.83
2017-06-14T03:35:37.816Z,937.83
2017-06-14T03:36:05.963Z,937.86
2017-06-14T03:36:34.141Z,937.94
2017-06-14T03:37:02.306Z,938.03
2017-06-14T03:37:30.344Z,938.06
2017-06-14T03:37:58.470Z,938.1
2017-06-14T03:38:26.606Z,938.19
2017-06-14T03:38:54.649Z,938.22
2017-06-14T03:39:22.788Z,938.32
2017-06-14T03:39:50.911Z,938.34
2017-06-14T03:40:19.035Z,938.44
2017-06-14T03:40:47.068Z,938.5
2017-06-14T03:41:15.195Z,938.57
2017-06-14T03:41:43.379Z,938.63
2017-06-14T03:42:11.408Z,938.69
2017-06-14T03:42:39.456Z,938.72
2017-06-14T03:43:07.623Z,938.8
2017-06-14T03:43:35.752Z,938.82
2017-06-14T03:44:03.810Z,938.86
2017-06-14T03:44:31.968Z,938.9
2017-06-14T03:45:00.112Z,938.89
2017-06-14T03:45:28.263Z,938.93
2017-06-14T03:45:56.410Z,938.95
2017-06-14T03:46:24.510Z,938.99
2017-06-14T03:46:52.672Z,939
2017-06-14T03:47:20.784Z,939
2017-06-14T03:47:48.841Z,938.99
2017-06-14T03:48:16.894Z,939
2017-06-14T03:48:45.035Z,939.03
2017-06-14T03:49:13.132Z,939.04
2017-06-14T03:49:41.275Z,939.05
2017-06-14T03:50:09.418Z,939.11
2017-06-14T03:50:37.576Z,939.12
2017-06-14T03:51:05.640Z,939.14
2017-06-14T03:51:33.687Z,939.19
2017-06-14T03:52:01.822Z,939.2
2017-06-14T03:52:29.970Z,939.17
2017-06-14T03:52:58.126Z,939.2
2017-06-14T03:53:26.287Z,939.23
2017-06-14T03:53:54.418Z,939.21
2017-06-14T03:54:22.537Z,939.22
2017-06-14T03:54:50.683Z,939.19
2017-06-14T03:55:18.570Z,939.21
2017-06-14T03:55:46.690Z,939.25
2017-06-14T03:56:14.739Z,939.27
2017-06-14T03:56:42.794Z,939.22
2017-06-14T03:57:10.943Z,939.28
2017-06-14T03:57:38.968Z,939.29
2017-06-14T03:58:06.824Z,939.28
2017-06-14T03:58:34.990Z,939.26
2017-06-14T03:59:03.132Z,939.27
2017-06-14T03:59:31.269Z,939.28
2017-06-14T03:59:59.404Z,939.26
2017-06-14T04:00:27.537Z,939.24
2017-06-14T04:00:56.786Z,939.22
2017-06-14T04:01:24.899Z,939.21
2017-06-14T04:01:53.025Z,939.14
2017-06-14T04:02:21.183Z,939.18
2017-06-14T04:02:49.232Z,939.13
2017-06-14T04:03:17.297Z,939.09
2017-06-14T04:03:45.476Z,939.07
2017-06-14T04:04:13.623Z,939.11
2017-06-14T04:04:41.784Z,939.09
2017-06-14T04:05:09.922Z,939.06
2017-06-14T04:05:38.060Z,939.02
2017-06-14T04:06:06.223Z,938.99
2017-06-14T04:06:34.379Z,938.94
2017-06-14T04:07:02.536Z,938.91
2017-06-14T04:07:30.675Z,938.86
2017-06-14T04:07:58.813Z,938.8
2017-06-14T04:08:26.944Z,938.73
2017-06-14T04:08:55.085Z,938.69
2017-06-14T04:09:23.213Z,938.6
2017-06-14T04:09:51.344Z,938.55
2017-06-14T04:10:19.465Z,938.51
2017-06-14T04:10:47.607Z,938.44
2017-06-14T04:11:15.729Z,938.41
2017-06-14T04:11:43.784Z,938.42
2017-06-14T04:12:11.905Z,938.42
2017-06-14T04:12:40.049Z,938.42
2017-06-14T04:13:08.198Z,938.4
2017-06-14T04:13:36.365Z,938.43
2017-06-14T04:14:04.496Z,938.46
2017-06-14T04:14:32.532Z,938.48
2017-06-14T04:15:00.659Z,938.44
2017-06-14T04:15:28.813Z,938.42
2017-06-14T04:15:56.845Z,938.33
2017-06-14T04:16:24.981Z,938.29
2017-06-14T04:16:53.013Z,938.19
2017-06-14T04:17:21.147Z,938.12
2017-06-14T04:17:49.299Z,938.05
2017-06-14T04:18:17.453Z,937.92
2017-06-14T04:18:45.580Z,937.87
2017-06-14T04:19:13.721Z,937.88
2017-06-14T04:19:41.870Z,937.91
2017-06-14T04:20:10.033Z,937.92
2017-06-14T04:20:38.082Z,937.92
2017-06-14T04:21:06.211Z,937.95
2017-06-14T04:21:34.346Z,937.98
2017-06-14T04:22:02.492Z,938.02
2017-06-14T04:22:30.638Z,937.96
2017-06-14T04:22:58.778Z,937.98
2017-06-14T04:23:26.912Z,937.98
2017-06-14T04:23:54.950Z,938
2017-06-14T04:24:22.995Z,938.08
2017-06-14T04:24:51.173Z,938.11
2017-06-14T04:25:19.285Z,938.16
2017-06-14T04:25:47.341Z,938.26
2017-06-14T04:26:15.483Z,938.34
2017-06-14T04:26:43.616Z,938.34
2017-06-14T04:27:11.744Z,938.43
2017-06-14T04:27:39.893Z,938.44
2017-06-14T04:28:08.018Z,938.5
2017-06-14T04:28:36.077Z,938.57
2017-06-14T04:29:04.226Z,938.61
2017-06-14T04:29:32.391Z,938.63
2017-06-14T04:30:00.452Z,938.68
2017-06-14T04:30:28.482Z,938.73
2017-06-14T04:30:56.536Z,938.74
2017-06-14T04:31:24.706Z,938.75
2017-06-14T04:31:52.765Z,938.81
2017-06-14T04:32:20.893Z,938.83
2017-06-14T04:32:49.038Z,938.88
2017-06-14T04:33:17.152Z,938.92
2017-06-14T04:33:45.264Z,938.95
2017-06-14T04:34:13.421Z,938.99
2017-06-14T04:34:41.476Z,939.06
2017-06-14T04:35:09.619Z,939.09
2017-06-14T04:35:37.648Z,939.12
2017-06-14T04:36:05.782Z,939.17
2017-06-14T04:36:33.936Z,939.17
2017-06-14T04:37:02.063Z,939.17
2017-06-14T04:37:30.184Z,939.22
2017-06-14T04:37:58.358Z,939.23
2017-06-14T04:38:26.523Z,939.22
2017-06-14T04:38:54.691Z,939.27
2017-06-14T04:39:22.846Z,939.3
2017-06-14T04:39:51.020Z,939.29
2017-06-14T04:40:19.186Z,939.33
2017-06-14T04:40:47.340Z,939.32
2017-06-14T04:41:15.468Z,939.33
2017-06-14T04:41:43.517Z,939.28
2017-06-14T04:42:11.663Z,939.3
2017-06-14T04:42:39.800Z,939.28
2017-06-14T04:43:07.940Z,939.25
2017-06-14T04:43:36.081Z,939.25
2017-06-14T04:44:04.237Z,939.24
2017-06-14T04:44:32.353Z,939.22
2017-06-14T04:45:00.498Z,939.16
2017-06-14T04:45:28.651Z,939.15
2017-06-14T04:45:56.633Z,939.13
2017-06-14T04:46:24.660Z,939.04
2017-06-14T04:46:52.712Z,939.07
2017-06-14T04:47:20.884Z,939.02
2017-06-14T04:47:49.021Z,939.04
2017-06-14T04:48:16.970Z,939
2017-06-14T04:48:45.133Z,938.99
2017-06-14T04:49:13.287Z,938.99
2017-06-14T04:49:41.414Z,938.97
2017-06-14T04:50:09.251Z,938.93
2017-06-14T04:50:37.401Z,938.9
2017-06-14T04:51:05.440Z,938.93
2017-06-14T04:51:33.593Z,938.9
2017-06-14T04:52:01.755Z,938.86
2017-06-14T04:52:29.826Z,938.88
2017-06-14T04:52:57.965Z,938.85
2017-06-14T04:53:26.010Z,938.85
2017-06-14T04:53:54.158Z,938.82
2017-06-14T04:54:22.108Z,938.86
2017-06-14T04:54:50.141Z,938.84
2017-06-14T04:55:18.182Z,938.85
2017-06-14T04:55:46.317Z,938.85
2017-06-14T04:56:14.165Z,938.83
2017-06-14T04:56:42.291Z,938.84
2017-06-14T04:57:10.334Z,938.88
2017-06-14T04:57:38.488Z,938.84
2017-06-14T04:58:06.626Z,938.83
2017-06-14T04:58:34.698Z,938.87
2017-06-14T04:59:02.849Z,938.88
2017-06-14T04:59:30.996Z,938.9
2017-06-14T04:59:59.126Z,938.87
2017-06-14T05:00:27.276Z,938.84
2017-06-14T05:00:55.430Z,938.87
2017-06-14T05:01:23.475Z,938.86
2017-06-14T05:01:51.519Z,938.85
2017-06-14T05:02:20.345Z,938.85
2017-06-14T05:02:48.473Z,938.82
2017-06-14T05:03:16.411Z,938.87
2017-06-14T05:03:44.552Z,938.86
2017-06-14T05:04:12.481Z,938.86
2017-06-14T05:04:40.598Z,938.85
2017-06-14T05:05:08.733Z,938.84
2017-06-14T05:05:36.867Z,938.84
2017-06-14T05:06:04.921Z,938.8
2017-06-14T05:06:33.276Z,938.81
2017-06-14T05:07:01.427Z,938.81
2017-06-14T05:07:29.569Z,938.79
2017-06-14T05:07:57.697Z,938.77
2017-06-14T05:08:25.649Z,938.79
2017-06-14T05:08:53.693Z,938.76
2017-06-14T05:09:21.805Z,938.79
2017-06-14T05:09:49.862Z,938.78
2017-06-14T05:10:17.887Z,938.75
2017-06-14T05:10:45.960Z,938.76
2017-06-14T05:11:14.013Z,938.75
2017-06-14T05:11:42.074Z,938.75
2017-06-14T05:12:10.225Z,938.71
2017-06-14T05:12:38.158Z,938.69
2017-06-14T05:13:06.230Z,938.66
2017-06-14T05:13:34.355Z,938.62
2017-06-14T05:14:02.504Z,938.57
2017-06-14T05:14:30.523Z,938.55
2017-06-14T05:14:58.573Z,938.58
2017-06-14T05:15:26.617Z,938.56
2017-06-14T05:15:54.701Z,938.55
2017-06-14T05:16:22.747Z,938.56
2017-06-14T05:16:50.888Z,938.6
2017-06-14T05:17:19.030Z,938.56
2017-06-14T05:17:46.994Z,938.61
2017-06-14T05:18:15.140Z,938.57
2017-06-14T05:18:43.178Z,938.6
2017-06-14T05:19:11.334Z,938.61
2017-06-14T05:19:39.473Z,938.6
2017-06-14T05:20:07.528Z,938.58
2017-06-14T05:20:35.967Z,938.59
2017-06-14T05:21:04.009Z,938.57
2017-06-14T05:21:32.055Z,938.57
2017-06-14T05:22:00.026Z,938.56
2017-06-14T05:22:28.151Z,938.56
2017-06-14T05:22:56.318Z,938.53
2017-06-14T05:23:24.365Z,938.56
2017-06-14T05:23:52.514Z,938.54
2017-06-14T05:24:20.550Z,938.5
2017-06-14T05:24:48.597Z,938.51
2017-06-14T05:25:16.726Z,938.52
2017-06-14T05:25:44.901Z,938.49
2017-06-14T05:26:12.950Z,938.49
2017-06-14T05:26:41.096Z,938.48
2017-06-14T05:27:09.236Z,938.52
2017-06-14T05:27:37.378Z,938.49
2017-06-14T05:28:05.519Z,938.5
2017-06-14T05:28:33.671Z,938.52
2017-06-14T05:29:01.728Z,938.51
2017-06-14T05:29:29.772Z,938.49
2017-06-14T05:29:57.943Z,938.52
2017-06-14T05:30:26.073Z,938.52
2017-06-14T05:30:54.101Z,938.52
2017-06-14T05:31:22.259Z,938.52
2017-06-14T05:31:50.325Z,938.5
2017-06-14T05:32:18.481Z,938.49
2017-06-14T05:32:46.613Z,938.51
2017-06-14T05:33:14.764Z,938.51
2017-06-14T05:33:42.803Z,938.47
2017-06-14T05:34:10.947Z,938.49
2017-06-14T05:34:38.909Z,938.46
2017-06-14T05:35:07.066Z,938.46
2017-06-14T05:35:35.216Z,938.46
2017-06-14T05:36:03.252Z,938.42
2017-06-14T05:36:31.401Z,938.47
2017-06-14T05:36:59.455Z,938.48
2017-06-14T05:37:27.494Z,938.46
2017-06-14T05:37:55.653Z,938.5
2017-06-14T05:38:23.798Z,938.49
2017-06-14T05:38:51.962Z,938.53
2017-06-14T05:39:19.992Z,938.51
2017-06-14T05:39:48.129Z,938.49
2017-06-14T05:40:16.285Z,938.49
2017-06-14T05:40:44.428Z,938.5
2017-06-14T05:41:12.566Z,938.47
2017-06-14T05:41:40.722Z,938.44
2017-06-14T05:42:08.670Z,938.44
2017-06-14T05:42:36.814Z,938.43
2017-06-14T05:43:04.864Z,938.43
2017-06-14T05:43:32.818Z,938.42
2017-06-14T05:44:00.879Z,938.44
2017-06-14T05:44:29.045Z,938.42
2017-06-14T05:44:57.250Z,938.39
2017-06-14T05:45:25.369Z,938.41
2017-06-14T05:45:53.487Z,938.38
2017-06-14T05:46:21.540Z,938.38
2017-06-14T05:46:49.668Z,938.33
2017-06-14T05:47:17.787Z,938.31
2017-06-14T05:47:45.939Z,938.34
2017-06-14T05:48:14.103Z,938.32
2017-06-14T05:48:42.201Z,938.35
2017-06-14T05:49:10.175Z,938.38
2017-06-14T05:49:38.318Z,938.35
2017-06-14T05:50:06.475Z,938.36
2017-06-14T05:50:34.627Z,938.36
2017-06-14T05:51:02.763Z,938.39
2017-06-14T05:51:30.897Z,938.4
2017-06-14T05:51:59.036Z,938.37